Time;durP1;ratioP1;P1;durP2;ratioP2;P2;SDS_P1;SDS_P2;PMS_P1;PMS_P2;Temp;Humidity;BMP_temperature;BMP_pressure;BME280_temperature;BME280_humidity;BME280_pressure;Samples;Min_cycle;Max_cycle;Signal;HPM_P1;HPM_P2
2021/04/12 00:02:22;;;;;;;1.37;0.67;;;;;;;8.10;60.46;95489.63;6897186;28;20347;-72
2021/04/12 00:05:48;;;;;;;0.60;0.60;;;;;;;8.05;60.05;95498.88;6906491;28;20307;-71
2021/04/12 00:09:17;;;;;;;0.70;0.70;;;;;;;8.02;59.99;95518.47;6898514;28;20261;-73
2021/04/12 00:12:57;;;;;;;0.60;0.40;;;;;;;7.85;59.58;95523.31;6898335;28;20225;-71
2021/04/12 00:16:34;;;;;;;0.57;0.50;;;;;;;7.75;59.55;95523.97;6890982;28;20718;-72
2021/04/12 00:20:30;;;;;;;0.50;0.50;;;;;;;7.60;59.36;95537.47;6884588;28;20225;-71
2021/04/12 00:23:57;;;;;;;0.67;0.50;;;;;;;7.42;59.51;95546.72;6870171;28;20307;-72
2021/04/12 00:27:26;;;;;;;0.40;0.40;;;;;;;7.29;59.53;95549.44;6899920;28;20220;-71
2021/04/12 00:30:52;;;;;;;0.50;0.50;;;;;;;7.31;60.23;95556.28;6900462;28;20239;-71
2021/04/12 00:34:21;;;;;;;0.50;0.50;;;;;;;7.27;60.49;95553.97;6896226;28;20717;-71
2021/04/12 00:37:54;;;;;;;0.50;0.50;;;;;;;7.22;60.17;95561.38;6896118;28;20220;-72
2021/04/12 00:41:51;;;;;;;0.57;0.57;;;;;;;7.22;60.13;95564.84;6889518;28;20243;-71
2021/04/12 00:45:26;;;;;;;0.50;0.50;;;;;;;7.12;60.23;95566.44;6881416;28;20223;-71
2021/04/12 00:48:57;;;;;;;0.40;0.40;;;;;;;7.05;60.42;95566.97;6888920;28;20702;-71
2021/04/12 00:52:42;;;;;;;0.50;0.50;;;;;;;7.02;60.40;95561.91;6882500;28;20219;-71
2021/04/12 00:56:05;;;;;;;0.50;0.50;;;;;;;6.96;60.60;95563.19;6895250;28;20212;-71
2021/04/12 00:59:32;;;;;;;0.50;0.50;;;;;;;6.89;60.76;95573.31;6900228;28;21000;-71
2021/04/12 01:03:29;;;;;;;0.50;0.50;;;;;;;6.80;61.05;95571.31;6901616;28;20262;-72
2021/04/12 01:07:36;;;;;;;0.50;0.50;;;;;;;6.73;61.15;95570.06;6908377;28;20217;-71
2021/04/12 01:11:12;;;;;;;0.50;0.50;;;;;;;6.72;61.36;95575.44;6899205;28;20312;-71
2021/04/12 01:15:00;;;;;;;0.57;0.57;;;;;;;6.65;61.66;95582.09;6872472;28;20217;-72
2021/04/12 01:18:35;;;;;;;0.47;0.47;;;;;;;6.67;61.50;95577.56;6877687;28;20698;-72
2021/04/12 01:22:09;;;;;;;0.50;0.50;;;;;;;6.65;61.56;95579.44;6869917;28;20232;-71
2021/04/12 01:26:07;;;;;;;0.50;0.50;;;;;;;6.63;61.45;95590.13;6882166;28;20213;-71
2021/04/12 01:29:46;;;;;;;0.60;0.50;;;;;;;6.57;61.73;95585.25;6865925;28;20220;-71
2021/04/12 01:33:40;;;;;;;11.73;1.00;;;;;;;6.53;60.78;95598.75;6881780;28;20216;-69
2021/04/12 01:37:38;;;;;;;44.87;1.60;;;;;;;6.37;61.01;95606.84;6902650;28;20224;-71
2021/04/12 01:41:10;;;;;;;38.03;1.63;;;;;;;6.24;61.01;95606.81;6880188;28;20249;-72
2021/04/12 01:44:53;;;;;;;33.30;1.50;;;;;;;6.11;61.42;95620.91;6883668;28;20704;-72
2021/04/12 01:48:38;;;;;;;26.27;1.17;;;;;;;5.99;61.72;95625.19;6863895;28;20228;-71
2021/04/12 01:52:39;;;;;;;97.00;2.53;;;;;;;5.93;62.49;95621.19;6887559;28;20205;-71
2021/04/12 01:56:13;;;;;;;55.80;1.87;;;;;;;5.94;62.69;95630.75;6868772;28;20677;-72
2021/04/12 02:00:04;;;;;;;0.40;0.40;;;;;;;5.96;63.03;95642.06;6879850;28;20233;-71
2021/04/12 02:03:43;;;;;;;1.33;0.50;;;;;;;6.03;62.92;95634.59;6874666;28;20885;-71
2021/04/12 02:07:41;;;;;;;0.50;0.50;;;;;;;6.02;62.65;95641.66;6895064;28;20215;-72
2021/04/12 02:11:05;;;;;;;0.50;0.50;;;;;;;6.00;63.13;95650.59;6890341;28;20733;-71
2021/04/12 02:14:52;;;;;;;2.50;0.60;;;;;;;6.01;62.97;95660.22;6872447;28;20235;-70
2021/04/12 02:18:30;;;;;;;0.40;0.40;;;;;;;5.95;63.44;95657.97;6859797;28;20214;-70
2021/04/12 02:21:58;;;;;;;3.13;0.60;;;;;;;5.88;63.42;95662.78;6873037;28;20228;-71
2021/04/12 02:25:43;;;;;;;0.50;0.50;;;;;;;5.92;63.33;95664.28;6872284;28;20213;-71
2021/04/12 02:29:28;;;;;;;0.50;0.50;;;;;;;5.96;63.32;95671.06;6875663;28;20216;-70
2021/04/12 02:33:07;;;;;;;0.50;0.50;;;;;;;6.05;63.38;95672.25;6895378;28;20217;-70
2021/04/12 02:36:52;;;;;;;0.70;0.50;;;;;;;6.03;62.68;95680.28;6887804;28;20291;-71
2021/04/12 02:40:34;;;;;;;0.50;0.50;;;;;;;6.01;63.07;95682.16;6892927;28;20840;-69
2021/04/12 02:44:13;;;;;;;0.50;0.50;;;;;;;5.89;62.80;95674.16;6895519;28;20212;-72
2021/04/12 02:48:35;;;;;;;0.40;0.40;;;;;;;5.86;63.60;95682.25;6887942;28;20215;-71
2021/04/12 02:52:01;;;;;;;0.50;0.50;;;;;;;5.92;63.37;95693.28;6843267;28;20704;-71
2021/04/12 02:55:35;;;;;;;0.40;0.40;;;;;;;5.99;64.03;95697.19;6878732;28;21022;-71
2021/04/12 02:59:31;;;;;;;0.40;0.40;;;;;;;6.00;63.66;95704.19;6880065;28;20307;-71
2021/04/12 03:03:12;;;;;;;0.50;0.50;;;;;;;6.01;63.50;95705.03;6868345;28;20216;-72
2021/04/12 03:06:51;;;;;;;0.40;0.40;;;;;;;5.97;63.90;95703.53;6878178;28;20243;-72
2021/04/12 03:10:30;;;;;;;0.70;0.70;;;;;;;6.01;63.68;95711.16;6878128;28;20224;-71
2021/04/12 03:14:17;;;;;;;0.50;0.50;;;;;;;6.05;63.26;95709.16;6861085;28;20715;-71
2021/04/12 03:18:08;;;;;;;0.37;0.37;;;;;;;5.99;63.37;95717.44;6874834;28;20224;-71
2021/04/12 03:21:46;;;;;;;0.60;0.60;;;;;;;5.95;63.63;95724.72;6872369;28;20248;-71
2021/04/12 03:25:34;;;;;;;2.07;0.60;;;;;;;5.93;63.72;95728.41;6872160;28;21053;-71
2021/04/12 03:28:55;;;;;;;0.50;0.50;;;;;;;5.88;63.25;95722.56;6879504;28;20216;-72
2021/04/12 03:32:20;;;;;;;0.40;0.40;;;;;;;5.84;63.37;95726.28;6892519;28;20232;-72
2021/04/12 03:36:05;;;;;;;0.50;0.50;;;;;;;5.79;63.69;95736.25;6855059;28;20347;-72
2021/04/12 03:39:57;;;;;;;0.40;0.40;;;;;;;5.65;63.59;95734.50;6879605;28;20243;-72
2021/04/12 03:43:30;;;;;;;0.50;0.50;;;;;;;5.55;63.89;95741.28;6877942;28;20225;-72
2021/04/12 03:47:02;;;;;;;0.60;0.40;;;;;;;5.55;64.38;95739.50;6871087;28;20224;-74
2021/04/12 03:50:26;;;;;;;0.50;0.50;;;;;;;5.64;64.35;95751.25;6879555;28;20221;-70
2021/04/12 03:53:49;;;;;;;0.50;0.50;;;;;;;5.65;64.62;95754.72;6885871;28;20213;-70
2021/04/12 03:57:48;;;;;;;0.50;0.50;;;;;;;5.58;64.41;95763.00;6886208;28;20224;-70
2021/04/12 04:01:38;;;;;;;0.47;0.47;;;;;;;5.65;64.64;95768.75;6881649;28;20214;-74
2021/04/12 04:05:24;;;;;;;0.50;0.50;;;;;;;5.73;64.20;95771.78;6868100;28;21005;-74
2021/04/12 04:08:55;;;;;;;0.50;0.50;;;;;;;5.65;64.51;95774.00;6879307;28;20221;-71
2021/04/12 04:12:34;;;;;;;0.40;0.40;;;;;;;5.53;64.68;95783.50;6879859;28;20646;-71
2021/04/12 04:16:13;;;;;;;0.70;0.63;;;;;;;5.51;64.54;95790.66;6894133;28;20217;-73
2021/04/12 04:20:00;;;;;;;0.50;0.50;;;;;;;5.46;64.31;95792.72;6898278;28;20213;-71
2021/04/12 04:23:32;;;;;;;0.40;0.40;;;;;;;5.52;64.88;95800.28;6898859;28;20765;-72
2021/04/12 04:27:04;;;;;;;0.50;0.50;;;;;;;5.54;64.76;95806.28;6894246;28;20315;-71
2021/04/12 04:30:53;;;;;;;0.70;0.70;;;;;;;5.57;64.68;95808.75;6889404;28;20217;-71
2021/04/12 04:34:22;;;;;;;0.53;0.53;;;;;;;5.49;64.50;95808.34;6887348;28;20768;-71
2021/04/12 04:38:05;;;;;;;0.50;0.50;;;;;;;5.35;64.66;95818.00;6868041;28;20213;-71
2021/04/12 04:41:34;;;;;;;0.60;0.60;;;;;;;5.31;65.45;95821.78;6884024;28;20225;-71
2021/04/12 04:45:26;;;;;;;0.50;0.50;;;;;;;5.28;64.82;95827.22;6882486;28;20705;-71
2021/04/12 04:48:52;;;;;;;0.40;0.40;;;;;;;5.22;64.90;95838.97;6886648;28;20296;-71
2021/04/12 04:52:24;;;;;;;142.17;4.90;;;;;;;5.24;64.96;95844.13;6881510;28;20213;-71
2021/04/12 04:56:13;;;;;;;55.47;3.40;;;;;;;5.18;64.99;95855.88;6886266;28;20223;-71
2021/04/12 04:59:43;;;;;;;1.00;1.00;;;;;;;5.07;65.10;95850.38;6894802;28;20588;-70
2021/04/12 05:03:20;;;;;;;0.80;0.80;;;;;;;5.02;65.42;95857.69;6862227;28;20213;-70
2021/04/12 05:07:18;;;;;;;0.60;0.60;;;;;;;5.02;66.23;95863.81;6893384;28;20232;-70
2021/04/12 05:10:53;;;;;;;0.80;0.80;;;;;;;4.98;65.33;95875.44;6893071;28;20263;-70
2021/04/12 05:14:38;;;;;;;0.70;0.70;;;;;;;4.99;65.67;95882.38;6876407;28;20220;-70
2021/04/12 05:18:20;;;;;;;54.27;2.03;;;;;;;4.82;65.28;95887.78;6898672;28;20220;-70
2021/04/12 05:21:59;;;;;;;4.20;1.00;;;;;;;4.61;66.44;95887.19;6895423;28;20236;-70
2021/04/12 05:25:25;;;;;;;0.87;0.87;;;;;;;4.66;67.38;95902.72;6896523;28;20775;-69
2021/04/12 05:28:54;;;;;;;102.20;3.40;;;;;;;4.75;67.48;95912.72;6892253;28;20753;-71
2021/04/12 05:32:39;;;;;;;2.20;0.97;;;;;;;4.71;67.41;95919.09;6891396;28;20301;-71
2021/04/12 05:36:24;;;;;;;56.20;2.50;;;;;;;4.68;67.98;95933.25;6897130;28;20228;-70
2021/04/12 05:39:54;;;;;;;31.37;1.67;;;;;;;4.53;67.59;95931.47;6894805;28;20589;-71
2021/04/12 05:43:52;;;;;;;13.97;1.77;;;;;;;4.40;68.72;95937.47;6891590;28;20709;-71
2021/04/12 05:47:17;;;;;;;561.57;16.43;;;;;;;4.37;68.88;95953.44;6892333;28;20335;-72
2021/04/12 05:50:43;;;;;;;287.80;10.77;;;;;;;4.16;68.55;95966.78;6879193;28;20240;-72
2021/04/12 05:54:09;;;;;;;268.73;10.97;;;;;;;3.93;68.58;95964.47;6889804;28;20223;-71
2021/04/12 05:57:49;;;;;;;194.40;8.27;;;;;;;3.91;70.05;95963.72;6883197;28;20217;-71
2021/04/12 06:01:18;;;;;;;78.73;3.67;;;;;;;4.07;70.89;95977.78;6898396;28;20216;-71
2021/04/12 06:04:51;;;;;;;138.30;6.37;;;;;;;4.22;70.25;95981.38;6879873;28;20219;-71
2021/04/12 06:08:36;;;;;;;88.37;6.70;;;;;;;4.26;70.20;95978.50;6893826;28;20220;-71
2021/04/12 06:12:08;;;;;;;22.40;4.10;;;;;;;4.40;69.87;95983.03;6894769;28;20303;-70
2021/04/12 06:15:53;;;;;;;21.20;2.37;;;;;;;4.50;69.48;95993.91;6887310;28;20657;-71
2021/04/12 06:19:13;;;;;;;5.80;1.30;;;;;;;4.49;69.03;95994.81;6890514;28;20247;-70
2021/04/12 06:22:53;;;;;;;13.07;11.87;;;;;;;4.43;68.89;95996.00;6895743;28;22231;-71
2021/04/12 06:26:39;;;;;;;303.10;15.47;;;;;;;4.32;68.37;96006.25;6874947;28;20633;-71
2021/04/12 06:30:24;;;;;;;363.53;26.07;;;;;;;4.30;69.42;96008.09;6889417;28;20224;-71
2021/04/12 06:33:53;;;;;;;93.53;5.50;;;;;;;4.38;69.80;96010.31;6892813;28;20210;-71
2021/04/12 06:37:49;;;;;;;428.67;14.17;;;;;;;4.39;69.33;96009.41;6904928;28;20216;-72
2021/04/12 06:41:18;;;;;;;164.93;11.87;;;;;;;4.13;69.62;96019.47;6856909;28;20221;-71
2021/04/12 06:45:26;;;;;;;5.73;4.87;;;;;;;4.11;70.00;96028.38;6890385;28;20216;-71
2021/04/12 06:48:56;;;;;;;49.93;22.13;;;;;;;4.02;70.00;96032.34;6878878;28;20327;-71
2021/04/12 06:52:44;;;;;;;122.17;7.03;;;;;;;4.06;70.45;96022.53;6882386;28;20228;-71
2021/04/12 06:56:21;;;;;;;2.77;2.53;;;;;;;4.07;70.07;96038.22;6880986;28;20233;-70
2021/04/12 06:59:56;;;;;;;2.90;2.70;;;;;;;4.18;69.59;96049.00;6882485;28;20319;-71
2021/04/12 07:03:38;;;;;;;4.63;2.70;;;;;;;4.27;69.68;96040.69;6885719;28;20874;-71
2021/04/12 07:07:18;;;;;;;3.73;3.43;;;;;;;4.26;68.96;96048.63;6901498;28;20259;-71
2021/04/12 07:11:04;;;;;;;5.50;5.00;;;;;;;4.33;68.82;96044.75;6872504;28;20206;-71
2021/04/12 07:15:05;;;;;;;6.87;6.13;;;;;;;4.43;68.32;96058.25;6875565;28;20255;-72
2021/04/12 07:18:51;;;;;;;4.73;4.33;;;;;;;4.37;68.14;96059.47;6893794;28;20251;-71
2021/04/12 07:22:49;;;;;;;4.90;4.50;;;;;;;4.36;68.32;96065.63;6879009;28;20229;-72
2021/04/12 07:26:18;;;;;;;7.03;6.40;;;;;;;4.32;68.26;96062.28;6875061;28;20683;-71
2021/04/12 07:30:08;;;;;;;5.80;5.30;;;;;;;4.40;68.37;96072.44;6877239;28;20251;-71
2021/04/12 07:33:55;;;;;;;5.03;4.63;;;;;;;4.41;68.36;96081.19;6858412;28;20224;-72
2021/04/12 07:37:37;;;;;;;7.60;7.00;;;;;;;4.32;68.05;96082.50;6887533;28;20307;-71
2021/04/12 07:41:45;;;;;;;6.20;5.70;;;;;;;4.28;68.99;96088.81;6883126;28;20246;-72
2021/04/12 07:45:46;;;;;;;4.97;4.57;;;;;;;4.31;68.45;96097.44;6891101;28;20637;-71
2021/04/12 07:49:28;;;;;;;4.73;4.33;;;;;;;4.39;67.98;96106.69;6880161;28;20217;-71
2021/04/12 07:53:33;;;;;;;6.10;5.60;;;;;;;4.36;68.04;96112.13;6891209;28;20213;-71
2021/04/12 07:57:12;;;;;;;5.73;5.23;;;;;;;4.37;67.40;96113.81;6887614;28;20281;-71
2021/04/12 08:01:26;;;;;;;6.73;6.13;;;;;;;4.29;67.74;96122.09;6889557;28;20220;-71
2021/04/12 08:05:24;;;;;;;7.67;6.30;;;;;;;4.23;68.63;96136.38;6862671;28;20227;-72
2021/04/12 08:09:13;;;;;;;7.00;6.40;;;;;;;4.20;68.66;96147.06;6895317;28;20323;-71
2021/04/12 08:12:51;;;;;;;6.77;6.23;;;;;;;4.22;68.17;96147.00;6893537;28;20367;-72
2021/04/12 08:16:33;;;;;;;7.33;6.53;;;;;;;4.33;68.70;96149.91;6889901;28;20212;-73
2021/04/12 08:20:27;;;;;;;9.60;8.70;;;;;;;4.54;68.47;96140.09;6896880;28;20255;-72
2021/04/12 08:23:51;;;;;;;8.47;7.67;;;;;;;4.74;67.71;96139.91;6901572;28;20230;-72
2021/04/12 08:27:29;;;;;;;8.63;7.83;;;;;;;4.92;66.10;96146.88;6901388;28;20217;-72
2021/04/12 08:31:23;;;;;;;7.40;6.80;;;;;;;5.01;66.38;96142.91;6899360;28;20224;-72
2021/04/12 08:34:58;;;;;;;8.07;7.37;;;;;;;5.17;65.44;96156.97;6896713;28;20215;-71
2021/04/12 08:38:44;;;;;;;7.93;7.20;;;;;;;5.25;64.64;96151.28;6897974;28;20728;-71
2021/04/12 08:42:20;;;;;;;8.97;8.07;;;;;;;5.35;64.78;96161.22;6897140;28;20248;-71
2021/04/12 08:46:14;;;;;;;9.57;8.67;;;;;;;5.38;64.29;96160.22;6899502;28;20734;-72
2021/04/12 08:49:55;;;;;;;9.63;8.57;;;;;;;5.44;64.36;96160.72;6875784;28;20688;-72
2021/04/12 08:53:22;;;;;;;9.00;7.67;;;;;;;5.43;64.62;96174.00;6891250;28;20239;-72
2021/04/12 08:56:58;;;;;;;12.63;8.80;;;;;;;5.60;65.48;96169.50;6873719;28;20224;-72
2021/04/12 09:00:40;;;;;;;8.80;7.80;;;;;;;5.78;64.75;96178.19;6889872;28;20969;-72
2021/04/12 09:04:25;;;;;;;10.50;9.37;;;;;;;5.89;64.80;96182.88;6883563;28;20224;-72
2021/04/12 09:08:04;;;;;;;15.40;8.83;;;;;;;6.08;64.59;96180.94;6880972;28;20225;-72
2021/04/12 09:12:02;;;;;;;9.20;8.30;;;;;;;6.34;65.29;96182.91;6879369;28;20225;-73
2021/04/12 09:16:00;;;;;;;8.07;7.37;;;;;;;6.47;64.47;96181.28;6878191;28;20232;-74
2021/04/12 09:19:48;;;;;;;7.50;6.77;;;;;;;6.59;64.03;96187.63;6892338;28;20298;-72
2021/04/12 09:23:28;;;;;;;13.33;10.97;;;;;;;6.76;63.09;96184.00;6871602;28;20254;-74
2021/04/12 09:27:10;;;;;;;8.50;7.70;;;;;;;6.85;61.59;96191.38;6869412;28;20718;-72
2021/04/12 09:31:04;;;;;;;8.60;7.70;;;;;;;6.96;61.38;96196.88;6884116;28;20717;-72
2021/04/12 09:34:43;;;;;;;8.67;7.87;;;;;;;7.09;60.24;96204.94;6880977;28;20237;-72
2021/04/12 09:38:31;;;;;;;14.60;13.13;;;;;;;7.15;60.02;96204.53;6885404;28;20353;-73
2021/04/12 09:42:22;;;;;;;9.57;8.67;;;;;;;7.35;59.98;96206.84;6891000;28;20239;-73
2021/04/12 09:46:20;;;;;;;9.53;8.63;;;;;;;7.60;58.79;96211.44;6886113;28;20235;-72
2021/04/12 09:50:07;;;;;;;10.60;9.60;;;;;;;7.72;58.71;96218.63;6879304;28;20219;-72
2021/04/12 09:53:52;;;;;;;9.30;8.50;;;;;;;7.93;58.61;96214.66;6874897;28;20236;-72
2021/04/12 09:57:48;;;;;;;10.13;8.67;;;;;;;8.28;59.48;96204.47;6895734;28;20272;-73
2021/04/12 10:01:39;;;;;;;9.83;8.93;;;;;;;8.44;59.58;96199.91;6871719;28;20230;-71
2021/04/12 10:05:24;;;;;;;8.73;7.93;;;;;;;8.59;57.79;96206.00;6898069;28;20266;-70
2021/04/12 10:08:56;;;;;;;10.37;9.27;;;;;;;8.62;54.86;96208.44;6875260;28;20236;-71
2021/04/12 10:12:38;;;;;;;9.13;8.33;;;;;;;8.60;56.13;96208.53;6880321;28;20224;-71
2021/04/12 10:16:20;;;;;;;9.57;8.57;;;;;;;8.80;56.73;96211.69;6882777;28;20732;-71
2021/04/12 10:19:55;;;;;;;9.80;8.90;;;;;;;8.88;56.31;96204.06;6877378;28;20636;-70
2021/04/12 10:23:20;;;;;;;9.63;8.70;;;;;;;8.91;56.34;96199.41;6855673;28;20233;-71
2021/04/12 10:26:48;;;;;;;9.60;8.70;;;;;;;8.95;55.36;96203.53;6856994;28;20598;-71
2021/04/12 10:30:25;;;;;;;9.50;8.70;;;;;;;8.88;54.87;96204.06;6868840;28;20890;-71
2021/04/12 10:34:07;;;;;;;9.40;8.60;;;;;;;8.97;54.42;96200.78;6876579;28;20217;-70
2021/04/12 10:37:36;;;;;;;8.63;7.83;;;;;;;9.12;54.68;96197.09;6864306;28;21172;-71
2021/04/12 10:41:29;;;;;;;8.90;8.00;;;;;;;9.26;52.29;96199.66;6844086;28;20272;-72
2021/04/12 10:45:02;;;;;;;8.27;7.47;;;;;;;9.07;51.24;96191.25;6865135;28;20991;-72
2021/04/12 10:48:29;;;;;;;8.63;7.83;;;;;;;9.08;52.75;96202.72;6845907;28;20228;-70
2021/04/12 10:52:15;;;;;;;8.10;7.30;;;;;;;9.41;52.04;96203.03;6873452;28;20243;-71
2021/04/12 10:55:44;;;;;;;8.07;7.37;;;;;;;9.85;52.84;96189.34;6867028;28;20328;-70
2021/04/12 10:59:24;;;;;;;7.63;6.93;;;;;;;10.16;51.13;96193.34;6876790;28;20288;-71
2021/04/12 11:03:10;;;;;;;7.90;7.20;;;;;;;10.17;50.40;96187.03;6863979;28;20359;-72
2021/04/12 11:06:54;;;;;;;8.43;7.63;;;;;;;9.95;50.92;96194.84;6851029;28;20225;-73
2021/04/12 11:10:50;;;;;;;7.83;7.10;;;;;;;9.89;50.23;96193.47;6868156;28;20233;-71
2021/04/12 11:14:19;;;;;;;8.13;7.37;;;;;;;9.93;49.27;96192.28;6876456;28;20687;-70
2021/04/12 11:18:14;;;;;;;7.83;7.10;;;;;;;10.10;49.56;96193.75;6874166;28;20255;-72
2021/04/12 11:21:47;;;;;;;8.30;7.57;;;;;;;10.41;50.27;96195.06;6864150;28;20244;-72
2021/04/12 11:25:23;;;;;;;7.10;6.50;;;;;;;10.69;49.12;96200.88;6889593;28;20702;-71
2021/04/12 11:28:53;;;;;;;7.00;5.93;;;;;;;10.84;47.10;96187.41;6871892;28;21005;-73
2021/04/12 11:32:47;;;;;;;7.13;6.47;;;;;;;11.01;46.69;96181.69;6867415;28;20289;-72
2021/04/12 11:36:26;;;;;;;6.87;6.17;;;;;;;11.12;45.45;96187.00;6850049;28;20660;-73
2021/04/12 11:40:05;;;;;;;8.03;6.87;;;;;;;10.95;44.64;96190.09;6859056;28;20224;-72
2021/04/12 11:43:36;;;;;;;7.50;6.80;;;;;;;10.85;46.75;96197.94;6849127;28;20240;-71
2021/04/12 11:47:20;;;;;;;8.73;7.90;;;;;;;10.91;48.02;96191.31;6863035;28;20286;-71
2021/04/12 11:51:05;;;;;;;7.37;6.67;;;;;;;10.99;48.92;96192.41;6869985;28;20690;-71
2021/04/12 11:54:52;;;;;;;7.70;7.10;;;;;;;11.00;47.69;96196.78;6883856;28;20994;-71
2021/04/12 11:58:22;;;;;;;7.13;6.53;;;;;;;10.86;46.92;96193.47;6875365;28;20220;-70
2021/04/12 12:01:49;;;;;;;10.23;6.90;;;;;;;10.53;46.85;96208.28;6874928;28;20225;-71
2021/04/12 12:05:18;;;;;;;8.97;6.17;;;;;;;10.50;47.65;96216.47;6862386;28;20252;-72
2021/04/12 12:09:22;;;;;;;9.77;7.60;;;;;;;10.57;47.45;96216.84;6912051;28;21006;-71
2021/04/12 12:12:59;;;;;;;6.83;5.47;;;;;;;10.57;46.27;96207.06;6879729;28;20209;-72
2021/04/12 12:16:26;;;;;;;6.17;5.40;;;;;;;10.54;45.87;96209.97;6877282;28;21009;-72
2021/04/12 12:19:52;;;;;;;5.97;5.47;;;;;;;10.59;46.05;96210.47;6883879;28;20221;-72
2021/04/12 12:23:15;;;;;;;6.27;5.23;;;;;;;10.65;46.38;96203.88;6859348;28;20304;-72
2021/04/12 12:27:30;;;;;;;7.60;5.93;;;;;;;10.63;45.25;96206.63;6888336;28;20232;-72
2021/04/12 12:31:05;;;;;;;5.97;5.47;;;;;;;10.50;44.50;96203.19;6861717;28;20221;-72
2021/04/12 12:34:36;;;;;;;6.97;5.30;;;;;;;10.46;44.24;96206.19;6877705;28;20224;-72
2021/04/12 12:38:09;;;;;;;5.83;5.33;;;;;;;10.50;44.71;96200.53;6921327;28;20251;-72
2021/04/12 12:41:35;;;;;;;7.43;5.27;;;;;;;10.56;45.26;96207.22;6903815;28;20243;-72
2021/04/12 12:45:07;;;;;;;5.77;5.17;;;;;;;10.54;44.24;96196.69;6904062;28;20220;-73
2021/04/12 12:48:30;;;;;;;9.33;5.47;;;;;;;10.66;44.95;96195.78;6883422;28;20248;-73
2021/04/12 12:51:55;;;;;;;5.80;5.20;;;;;;;10.82;44.90;96199.94;6880747;28;20252;-72
2021/04/12 12:55:27;;;;;;;5.57;5.00;;;;;;;10.80;44.54;96199.22;6881231;28;20233;-73
2021/04/12 12:59:04;;;;;;;5.30;4.80;;;;;;;10.54;43.51;96202.00;6896491;28;20220;-74
2021/04/12 13:02:24;;;;;;;6.37;5.20;;;;;;;10.25;43.95;96203.28;6874123;28;20979;-72
2021/04/12 13:05:49;;;;;;;5.83;5.27;;;;;;;10.10;44.74;96191.94;6900528;28;20251;-73
2021/04/12 13:09:26;;;;;;;5.57;4.77;;;;;;;10.00;45.09;96198.88;6889451;28;20728;-73
2021/04/12 13:12:52;;;;;;;5.00;4.60;;;;;;;9.90;44.03;96198.69;6873175;28;20243;-70
2021/04/12 13:16:16;;;;;;;5.33;4.83;;;;;;;9.82;44.94;96193.03;6900505;28;20217;-72
2021/04/12 13:19:50;;;;;;;10.63;5.37;;;;;;;9.86;45.61;96196.31;6879158;28;21020;-72
2021/04/12 13:23:21;;;;;;;7.03;4.80;;;;;;;10.01;47.39;96197.06;6875359;28;20644;-73
2021/04/12 13:26:48;;;;;;;4.90;4.30;;;;;;;10.02;45.44;96201.38;6894479;28;20252;-72
2021/04/12 13:30:09;;;;;;;6.67;4.70;;;;;;;9.96;45.31;96209.81;6878840;28;20674;-73
2021/04/12 13:33:53;;;;;;;7.70;4.30;;;;;;;9.85;43.44;96208.75;6882493;28;20216;-73
2021/04/12 13:37:18;;;;;;;5.03;4.27;;;;;;;9.78;43.19;96204.00;6889464;28;20221;-72
2021/04/12 13:40:46;;;;;;;5.60;4.47;;;;;;;9.71;42.76;96206.22;6894067;28;20561;-71
2021/04/12 13:44:11;;;;;;;9.27;4.77;;;;;;;9.66;44.42;96200.38;6892588;28;20353;-72
2021/04/12 13:47:34;;;;;;;11.77;5.07;;;;;;;9.68;45.63;96208.25;6896218;28;20215;-72
2021/04/12 13:51:04;;;;;;;9.53;6.07;;;;;;;9.69;46.60;96205.50;6898393;28;20584;-72
2021/04/12 13:54:32;;;;;;;7.03;5.00;;;;;;;9.80;46.92;96202.94;6876109;28;20254;-72
2021/04/12 13:58:01;;;;;;;7.37;5.07;;;;;;;9.81;46.00;96209.06;6889989;28;20299;-72
2021/04/12 14:01:23;;;;;;;8.87;6.03;;;;;;;9.75;45.45;96210.38;6871775;28;20227;-72
2021/04/12 14:04:47;;;;;;;15.90;6.30;;;;;;;9.68;45.88;96213.53;6890397;28;20220;-72
2021/04/12 14:08:12;;;;;;;11.07;6.10;;;;;;;9.62;46.09;96206.00;6904277;28;20212;-72
2021/04/12 14:11:39;;;;;;;6.00;5.40;;;;;;;9.52;45.42;96219.06;6884569;28;20212;-72
2021/04/12 14:15:15;;;;;;;7.67;5.50;;;;;;;9.37;46.21;96210.38;6897107;28;20208;-73
2021/04/12 14:18:40;;;;;;;4.87;4.43;;;;;;;9.40;45.57;96219.94;6881197;28;20224;-72
2021/04/12 14:22:24;;;;;;;7.77;5.03;;;;;;;9.50;44.14;96207.75;6892362;28;20633;-73
2021/04/12 14:25:54;;;;;;;6.83;4.27;;;;;;;9.63;43.26;96205.06;6877963;28;20667;-73
2021/04/12 14:29:37;;;;;;;6.00;4.00;;;;;;;9.83;43.96;96207.16;6898927;28;20220;-73
2021/04/12 14:33:00;;;;;;;5.70;4.10;;;;;;;10.00;43.42;96214.78;6869976;28;20209;-73
2021/04/12 14:36:26;;;;;;;4.83;4.43;;;;;;;10.07;42.79;96210.72;6891838;28;20279;-73
2021/04/12 14:39:47;;;;;;;4.53;4.07;;;;;;;10.10;42.81;96209.66;6873928;28;20300;-73
2021/04/12 14:43:28;;;;;;;4.27;3.93;;;;;;;10.02;43.16;96212.00;6901004;28;20228;-74
2021/04/12 14:46:51;;;;;;;6.37;4.20;;;;;;;10.07;44.33;96217.81;6878870;28;20294;-74
2021/04/12 14:50:21;;;;;;;6.13;4.57;;;;;;;10.06;42.33;96224.94;6884979;28;20311;-73
2021/04/12 14:53:45;;;;;;;4.73;4.33;;;;;;;9.95;41.96;96219.56;6876145;28;20212;-74
2021/04/12 14:57:10;;;;;;;4.60;4.20;;;;;;;9.96;42.38;96225.72;6890157;28;20674;-73
2021/04/12 15:00:40;;;;;;;5.23;4.33;;;;;;;10.00;42.54;96228.06;6884467;28;20224;-73
2021/04/12 15:04:16;;;;;;;5.17;4.67;;;;;;;10.01;43.31;96226.25;6878787;28;20240;-74
2021/04/12 15:07:43;;;;;;;5.03;4.20;;;;;;;9.84;40.86;96230.94;6884479;28;20213;-73
2021/04/12 15:11:41;;;;;;;6.13;4.70;;;;;;;9.54;41.54;96224.28;6887539;28;20867;-74
2021/04/12 15:15:09;;;;;;;4.70;4.30;;;;;;;9.59;42.61;96228.31;6865878;28;20697;-73
2021/04/12 15:18:31;;;;;;;4.73;4.23;;;;;;;9.67;41.71;96233.06;6875545;28;20228;-75
2021/04/12 15:21:55;;;;;;;5.33;4.60;;;;;;;9.66;42.57;96239.31;6880771;28;20212;-73
2021/04/12 15:25:23;;;;;;;4.47;4.07;;;;;;;9.66;42.41;96237.50;6899978;28;20220;-73
2021/04/12 15:28:43;;;;;;;4.13;3.73;;;;;;;9.55;41.59;96232.13;6896289;28;20319;-75
2021/04/12 15:32:29;;;;;;;5.33;4.10;;;;;;;9.53;41.96;96235.81;6889824;28;20216;-73
2021/04/12 15:36:04;;;;;;;4.30;3.90;;;;;;;9.54;41.71;96235.72;6881444;28;20241;-73
2021/04/12 15:39:28;;;;;;;5.40;3.53;;;;;;;9.62;41.93;96237.84;6877240;28;20235;-74
2021/04/12 15:42:51;;;;;;;4.87;4.10;;;;;;;9.54;40.21;96240.19;6887717;28;20244;-73
2021/04/12 15:46:20;;;;;;;5.10;4.30;;;;;;;9.46;40.87;96248.66;6890641;28;20213;-73
2021/04/12 15:49:49;;;;;;;4.63;3.93;;;;;;;9.49;41.28;96248.47;6895622;28;20220;-73
2021/04/12 15:53:18;;;;;;;6.07;5.27;;;;;;;9.55;42.29;96247.19;6876397;28;20251;-73
2021/04/12 15:56:41;;;;;;;5.83;4.73;;;;;;;9.61;42.13;96246.75;6877574;28;20223;-73
2021/04/12 16:00:07;;;;;;;4.90;4.33;;;;;;;9.44;41.47;96253.22;6879247;28;20715;-74
2021/04/12 16:03:28;;;;;;;4.57;3.97;;;;;;;9.25;41.21;96252.78;6888636;28;20291;-72
2021/04/12 16:06:58;;;;;;;4.57;4.17;;;;;;;9.16;41.16;96264.81;6890270;28;20220;-73
2021/04/12 16:10:26;;;;;;;4.30;3.90;;;;;;;9.12;41.33;96262.50;6901331;28;20222;-74
2021/04/12 16:13:52;;;;;;;4.57;4.17;;;;;;;9.09;41.57;96257.41;6898641;28;20707;-74
2021/04/12 16:17:42;;;;;;;4.77;4.37;;;;;;;9.07;41.52;96264.59;6895834;28;20227;-73
2021/04/12 16:21:06;;;;;;;4.70;3.87;;;;;;;8.98;41.26;96264.28;6881107;28;20232;-74
2021/04/12 16:24:46;;;;;;;5.27;4.87;;;;;;;8.91;41.63;96260.31;6898162;28;20254;-73
2021/04/12 16:28:15;;;;;;;4.70;4.30;;;;;;;8.95;43.17;96256.50;6871719;28;20219;-73
2021/04/12 16:31:38;;;;;;;4.47;3.83;;;;;;;8.99;42.81;96265.97;6895556;28;20686;-74
2021/04/12 16:35:22;;;;;;;7.20;4.27;;;;;;;9.05;44.08;96262.06;6884666;28;20833;-72
2021/04/12 16:38:54;;;;;;;5.03;4.53;;;;;;;9.09;44.52;96268.00;6889947;28;20228;-73
2021/04/12 16:42:36;;;;;;;4.50;4.10;;;;;;;9.14;44.22;96261.44;6889688;28;20227;-73
2021/04/12 16:46:04;;;;;;;4.93;3.80;;;;;;;9.13;43.19;96265.06;6900806;28;20219;-74
2021/04/12 16:49:34;;;;;;;4.60;4.13;;;;;;;9.01;42.29;96263.19;6904481;28;20271;-73
2021/04/12 16:52:57;;;;;;;5.83;4.00;;;;;;;8.91;41.95;96260.31;6899325;28;20233;-73
2021/04/12 16:56:31;;;;;;;4.27;3.87;;;;;;;8.93;42.15;96261.06;6878824;28;20231;-74
2021/04/12 17:00:05;;;;;;;4.07;3.73;;;;;;;8.91;42.16;96264.75;6890818;28;20253;-73
2021/04/12 17:03:51;;;;;;;5.17;4.37;;;;;;;8.86;42.67;96262.41;6892806;28;20722;-74
2021/04/12 17:07:18;;;;;;;4.30;3.73;;;;;;;8.79;43.67;96266.44;6880409;28;20229;-74
2021/04/12 17:10:46;;;;;;;4.10;3.37;;;;;;;8.77;46.04;96268.34;6897906;28;20216;-73
2021/04/12 17:14:31;;;;;;;4.80;4.30;;;;;;;8.74;44.57;96263.25;6901718;28;20977;-73